createdAt,value
2022-10-15T00:01:20.378Z,10.84
2022-10-15T00:03:47.077Z,11.64
2022-10-15T00:06:16.729Z,11.93
2022-10-15T00:08:43.464Z,11.39
2022-10-15T00:11:14.997Z,11.94
2022-10-15T00:13:41.919Z,11.79
2022-10-15T00:16:09.831Z,11.87
2022-10-15T00:18:36.543Z,11.97
2022-10-15T00:21:06.364Z,11.99
2022-10-15T00:23:32.947Z,11.67
2022-10-15T00:26:08.197Z,12.14
2022-10-15T00:28:35.316Z,11.72
2022-10-15T00:31:06.560Z,12.25
2022-10-15T00:33:33.746Z,11.98
2022-10-15T00:36:14.136Z,11.93
2022-10-15T00:38:40.852Z,11.49
2022-10-15T00:41:08.371Z,11.84
2022-10-15T00:43:42.307Z,11.56
2022-10-15T00:46:23.831Z,11.61
2022-10-15T00:48:54.147Z,10.60
2022-10-15T00:51:21.112Z,11.99
2022-10-15T00:53:48.531Z,11.86
2022-10-15T00:56:16.285Z,11.83
2022-10-15T00:58:42.872Z,12.07
2022-10-15T01:01:09.452Z,11.95
2022-10-15T01:03:36.092Z,11.41
2022-10-15T01:06:02.715Z,10.99
2022-10-15T01:08:29.348Z,11.94
2022-10-15T01:11:00.379Z,11.96
2022-10-15T01:13:40.741Z,11.50
2022-10-15T01:16:20.262Z,12.28
2022-10-15T01:18:54.805Z,11.82
2022-10-15T01:21:22.486Z,12.28
2022-10-15T01:24:01.129Z,12.28
2022-10-15T01:26:55.075Z,12.25
2022-10-15T01:29:33.665Z,12.23
2022-10-15T01:32:12.122Z,12.23
2022-10-15T01:35:11.616Z,11.02
2022-10-15T01:37:43.429Z,11.69
2022-10-15T01:40:15.567Z,11.52
2022-10-15T01:42:56.667Z,12.23
2022-10-15T01:45:28.220Z,10.37
2022-10-15T01:47:56.679Z,12.24
2022-10-15T01:50:24.552Z,11.56
2022-10-15T01:52:51.819Z,11.66
2022-10-15T01:55:19.381Z,11.82
2022-10-15T01:57:45.934Z,11.13
2022-10-15T02:00:12.677Z,11.82
2022-10-15T02:02:39.439Z,12.41
2022-10-15T02:05:06.463Z,11.80
2022-10-15T02:07:43.691Z,12.46
2022-10-15T02:10:22.089Z,12.45
2022-10-15T02:12:52.920Z,11.49
2022-10-15T02:15:50.392Z,12.44
2022-10-15T02:18:38.527Z,11.89
2022-10-15T02:21:31.809Z,11.84
2022-10-15T02:24:10.449Z,12.31
2022-10-15T02:26:37.097Z,11.74
2022-10-15T02:29:04.842Z,11.42
2022-10-15T02:31:31.976Z,11.89
2022-10-15T02:34:01.128Z,11.16
2022-10-15T02:36:27.770Z,11.87
2022-10-15T02:38:55.068Z,11.97
2022-10-15T02:41:21.635Z,11.92
2022-10-15T02:43:48.402Z,10.93
2022-10-15T02:46:15.012Z,11.95
2022-10-15T02:48:41.603Z,11.76
2022-10-15T02:51:08.228Z,12.28
2022-10-15T02:53:34.871Z,11.97
2022-10-15T02:56:01.575Z,11.85
2022-10-15T02:58:29.330Z,11.62
2022-10-15T03:00:56.296Z,11.99
2022-10-15T03:03:23.028Z,11.39
2022-10-15T03:05:49.759Z,11.63
2022-10-15T03:08:16.363Z,11.77
2022-10-15T03:10:43.028Z,11.62
2022-10-15T03:13:09.643Z,11.90
2022-10-15T03:15:36.765Z,12.31
2022-10-15T03:18:03.995Z,11.82
2022-10-15T03:20:30.554Z,12.18
2022-10-15T03:22:57.242Z,11.65
2022-10-15T03:25:23.972Z,11.88
2022-10-15T03:27:52.916Z,12.08
2022-10-15T03:30:19.953Z,11.68
2022-10-15T03:32:48.030Z,11.95
2022-10-15T03:35:15.609Z,10.83
2022-10-15T03:37:42.197Z,11.67
2022-10-15T03:40:13.420Z,11.90
2022-10-15T03:42:41.327Z,11.97
2022-10-15T03:45:08.607Z,12.17
2022-10-15T03:47:35.318Z,11.89
2022-10-15T03:50:02.229Z,12.06
2022-10-15T03:52:28.813Z,12.14
2022-10-15T03:54:55.407Z,11.69
2022-10-15T03:57:22.033Z,12.26
2022-10-15T03:59:48.607Z,11.99
2022-10-15T04:02:15.319Z,11.88
2022-10-15T04:04:41.942Z,11.94
2022-10-15T04:07:08.533Z,12.19
2022-10-15T04:09:35.177Z,12.37
2022-10-15T04:12:01.748Z,11.84
2022-10-15T04:14:28.429Z,11.87
2022-10-15T04:16:55.964Z,11.74
2022-10-15T04:19:22.584Z,11.63
2022-10-15T04:21:49.146Z,12.62
2022-10-15T04:24:15.700Z,12.41
2022-10-15T04:26:42.256Z,11.82
2022-10-15T04:29:09.069Z,11.72
2022-10-15T04:31:35.694Z,12.41
2022-10-15T04:34:02.414Z,12.54
2022-10-15T04:36:29.066Z,12.63
2022-10-15T04:38:55.681Z,11.92
2022-10-15T04:41:22.294Z,11.11
2022-10-15T04:43:48.870Z,12.64
2022-10-15T04:46:15.545Z,12.05
2022-10-15T04:48:43.307Z,12.45
2022-10-15T04:51:18.012Z,12.15
2022-10-15T04:53:44.629Z,12.21
2022-10-15T04:56:13.811Z,12.00
2022-10-15T04:58:40.830Z,12.26
2022-10-15T05:01:09.332Z,12.01
2022-10-15T05:03:38.489Z,12.63
2022-10-15T05:06:12.223Z,12.39
2022-10-15T05:08:41.814Z,12.42
2022-10-15T05:11:10.559Z,12.36
2022-10-15T05:13:37.266Z,12.47
2022-10-15T05:16:17.064Z,12.83
2022-10-15T05:18:44.781Z,12.27
2022-10-15T05:21:11.511Z,12.12
2022-10-15T05:23:38.351Z,12.18
2022-10-15T05:26:09.119Z,12.12
2022-10-15T05:28:35.911Z,12.28
2022-10-15T05:31:10.991Z,11.73
2022-10-15T05:33:39.410Z,12.35
2022-10-15T05:36:12.739Z,12.20
2022-10-15T05:38:40.522Z,12.04
2022-10-15T05:41:07.163Z,12.37
2022-10-15T05:43:43.337Z,12.41
2022-10-15T05:46:09.901Z,11.66
2022-10-15T05:48:36.553Z,11.53
2022-10-15T05:51:04.150Z,11.70
2022-10-15T05:53:30.759Z,12.39
2022-10-15T05:55:58.851Z,11.73
2022-10-15T05:58:26.336Z,11.69
2022-10-15T06:00:57.166Z,11.48
2022-10-15T06:03:23.968Z,12.39
2022-10-15T06:05:50.831Z,11.66
2022-10-15T06:08:17.762Z,12.11
2022-10-15T06:10:44.387Z,12.38
2022-10-15T06:13:11.077Z,12.38
2022-10-15T06:15:41.330Z,11.64
2022-10-15T06:18:08.027Z,10.78
2022-10-15T06:20:34.683Z,12.41
2022-10-15T06:23:01.624Z,13.03
2022-10-15T06:25:28.471Z,12.46
2022-10-15T06:27:55.054Z,11.36
2022-10-15T06:30:21.624Z,12.71
2022-10-15T06:32:51.963Z,13.11
2022-10-15T06:35:18.840Z,11.68
2022-10-15T06:37:45.535Z,13.06
2022-10-15T06:40:12.470Z,12.80
2022-10-15T06:42:39.480Z,12.35
2022-10-15T06:45:06.936Z,13.07
2022-10-15T06:47:33.520Z,12.73
2022-10-15T06:50:00.767Z,12.64
2022-10-15T06:52:29.281Z,13.33
2022-10-15T06:54:55.913Z,12.99
2022-10-15T06:57:22.772Z,12.44
2022-10-15T06:59:49.676Z,13.11
2022-10-15T07:02:17.801Z,11.86
2022-10-15T07:04:44.620Z,13.39
2022-10-15T07:07:11.244Z,13.00
2022-10-15T07:09:37.988Z,12.31
2022-10-15T07:12:05.341Z,13.17
2022-10-15T07:14:32.167Z,13.46
2022-10-15T07:16:59.254Z,13.33
2022-10-15T07:19:25.909Z,13.02
2022-10-15T07:21:52.706Z,11.83
2022-10-15T07:24:19.332Z,12.16
2022-10-15T07:26:47.744Z,13.22
2022-10-15T07:29:14.549Z,13.28
2022-10-15T07:31:41.202Z,12.30
2022-10-15T07:34:07.832Z,13.75
2022-10-15T07:36:34.440Z,13.52
2022-10-15T07:39:01.069Z,13.81
2022-10-15T07:41:27.694Z,14.11
2022-10-15T07:43:54.312Z,14.24
2022-10-15T07:46:20.928Z,14.50
2022-10-15T07:48:47.610Z,13.96
2022-10-15T07:51:14.314Z,14.32
2022-10-15T07:53:41.052Z,13.38
2022-10-15T07:56:08.377Z,14.30
2022-10-15T07:58:35.504Z,14.53
2022-10-15T08:01:02.484Z,12.38
2022-10-15T08:03:29.158Z,14.35
2022-10-15T08:05:56.049Z,14.07
2022-10-15T08:08:22.970Z,13.07
2022-10-15T08:10:49.673Z,13.23
2022-10-15T08:13:16.254Z,13.21
2022-10-15T08:15:42.893Z,13.54
2022-10-15T08:18:49.835Z,14.68
2022-10-15T08:21:16.423Z,14.08
2022-10-15T08:23:43.227Z,14.13
2022-10-15T08:26:09.875Z,14.18
2022-10-15T08:28:36.803Z,14.50
2022-10-15T08:31:05.615Z,14.58
2022-10-15T08:33:36.079Z,14.37
2022-10-15T08:36:04.642Z,14.66
2022-10-15T08:38:31.469Z,14.04
2022-10-15T08:40:58.954Z,14.28
2022-10-15T08:43:40.049Z,14.44
2022-10-15T08:46:11.988Z,14.21
2022-10-15T08:48:42.876Z,13.85
2022-10-15T08:51:40.056Z,14.16
2022-10-15T08:54:06.821Z,14.25
2022-10-15T08:56:41.249Z,13.82
2022-10-15T08:59:28.303Z,14.57
2022-10-15T09:01:57.893Z,14.55
2022-10-15T09:04:31.737Z,14.76
2022-10-15T09:07:27.416Z,14.77
2022-10-15T09:09:59.845Z,14.79
2022-10-15T09:12:45.289Z,14.81
2022-10-15T09:15:17.333Z,14.44
2022-10-15T09:17:44.141Z,14.11
2022-10-15T09:20:27.055Z,13.63
2022-10-15T09:22:53.766Z,14.58
2022-10-15T09:25:22.221Z,14.09
2022-10-15T09:27:49.288Z,13.31
2022-10-15T09:30:28.098Z,14.97
2022-10-15T09:33:03.928Z,14.98
2022-10-15T09:35:34.725Z,14.24
2022-10-15T09:38:05.718Z,15.02
2022-10-15T09:40:44.824Z,15.09
2022-10-15T09:43:11.419Z,15.20
2022-10-15T09:45:38.064Z,15.24
2022-10-15T09:48:14.048Z,15.27
2022-10-15T09:50:43.080Z,14.24
2022-10-15T09:53:38.734Z,14.92
2022-10-15T09:56:08.185Z,15.31
2022-10-15T09:58:39.256Z,15.30
2022-10-15T10:01:07.121Z,14.93
2022-10-15T10:03:34.633Z,15.10
2022-10-15T10:06:09.463Z,15.09
2022-10-15T10:08:38.105Z,15.31
2022-10-15T10:11:07.405Z,15.30
2022-10-15T10:13:39.677Z,14.99
2022-10-15T10:16:08.996Z,14.66
2022-10-15T10:18:37.656Z,13.73
2022-10-15T10:21:20.904Z,15.52
2022-10-15T10:23:47.589Z,15.04
2022-10-15T10:26:14.228Z,13.93
2022-10-15T10:28:57.099Z,15.70
2022-10-15T10:31:33.357Z,15.49
2022-10-15T10:34:03.228Z,15.65
2022-10-15T10:36:31.579Z,15.38
2022-10-15T10:39:02.105Z,15.18
2022-10-15T10:42:07.802Z,15.76
2022-10-15T10:44:41.550Z,15.78
2022-10-15T10:47:08.606Z,15.82
2022-10-15T10:50:04.487Z,15.93
2022-10-15T10:52:35.178Z,14.72
2022-10-15T10:55:07.089Z,15.35
2022-10-15T10:57:50.448Z,15.98
2022-10-15T11:00:38.741Z,14.80
2022-10-15T11:03:05.994Z,15.06
2022-10-15T11:05:34.017Z,15.46
2022-10-15T11:08:22.265Z,16.17
2022-10-15T11:11:20.843Z,16.04
2022-10-15T11:14:29.428Z,16.50
2022-10-15T11:17:24.443Z,15.81
2022-10-15T11:20:26.728Z,16.82
2022-10-15T11:23:17.612Z,16.11
2022-10-15T11:25:53.566Z,14.93
2022-10-15T11:28:26.547Z,15.79
2022-10-15T11:31:15.126Z,16.89
2022-10-15T11:33:44.818Z,16.85
2022-10-15T11:36:23.994Z,16.87
2022-10-15T11:39:11.441Z,15.03
2022-10-15T11:41:40.390Z,16.27
2022-10-15T11:44:21.657Z,15.83
2022-10-15T11:47:07.221Z,16.64
2022-10-15T11:49:59.269Z,16.61
2022-10-15T11:52:41.003Z,16.29
2022-10-15T11:55:14.379Z,14.91
2022-10-15T11:57:40.964Z,16.08
2022-10-15T12:00:30.336Z,16.85
2022-10-15T12:02:57.351Z,16.76
2022-10-15T12:05:31.932Z,15.22
2022-10-15T12:07:58.675Z,16.52
2022-10-15T12:10:34.398Z,17.02
2022-10-15T12:13:21.177Z,17.02
2022-10-15T12:16:06.353Z,16.47
2022-10-15T12:18:34.917Z,16.82
2022-10-15T12:21:01.530Z,15.59
2022-10-15T12:23:37.158Z,16.66
2022-10-15T12:26:42.029Z,16.74
2022-10-15T12:29:21.319Z,15.35
2022-10-15T12:31:48.664Z,16.74
2022-10-15T12:34:27.198Z,16.49
2022-10-15T12:37:05.396Z,15.90
2022-10-15T12:39:52.223Z,16.20
2022-10-15T12:42:27.845Z,15.93
2022-10-15T12:44:54.668Z,15.62
2022-10-15T12:47:48.837Z,16.56
2022-10-15T12:50:18.657Z,16.59
2022-10-15T12:53:01.429Z,16.59
2022-10-15T12:55:34.717Z,16.57
2022-10-15T12:58:33.325Z,16.58
2022-10-15T13:01:07.602Z,15.21
2022-10-15T13:04:05.541Z,16.53
2022-10-15T13:06:34.281Z,16.10
2022-10-15T13:09:09.942Z,16.65
2022-10-15T13:11:54.915Z,16.62
2022-10-15T13:14:30.540Z,16.49
2022-10-15T13:16:57.268Z,16.21
2022-10-15T13:19:40.088Z,16.09
2022-10-15T13:22:18.978Z,15.88
2022-10-15T13:24:45.703Z,15.60
2022-10-15T13:27:22.539Z,15.29
2022-10-15T13:29:56.202Z,16.02
2022-10-15T13:32:23.338Z,15.46
2022-10-15T13:34:50.064Z,15.67
2022-10-15T13:37:23.273Z,15.35
2022-10-15T13:39:50.506Z,13.87
2022-10-15T13:42:17.059Z,15.81
2022-10-15T13:45:01.400Z,15.31
2022-10-15T13:47:35.772Z,15.32
2022-10-15T13:50:13.303Z,14.87
2022-10-15T13:52:44.825Z,15.53
2022-10-15T13:55:26.580Z,15.48
2022-10-15T13:58:01.621Z,15.34
2022-10-15T14:00:31.502Z,14.91
2022-10-15T14:03:08.129Z,15.11
2022-10-15T14:05:34.808Z,14.60
2022-10-15T14:08:01.794Z,14.45
2022-10-15T14:10:28.394Z,13.83
2022-10-15T14:12:54.989Z,13.50
2022-10-15T14:15:40.914Z,15.03
2022-10-15T14:18:07.832Z,15.35
2022-10-15T14:20:34.652Z,15.34
2022-10-15T14:23:01.276Z,14.80
2022-10-15T14:25:28.635Z,14.69
2022-10-15T14:27:55.397Z,15.01
2022-10-15T14:30:42.948Z,14.59
2022-10-15T14:33:32.218Z,15.30
2022-10-15T14:36:05.466Z,15.29
2022-10-15T14:38:32.189Z,14.07
2022-10-15T14:41:04.854Z,14.89
2022-10-15T14:43:35.357Z,14.62
2022-10-15T14:46:03.277Z,13.15
2022-10-15T14:48:35.594Z,14.88
2022-10-15T14:51:07.281Z,14.71
2022-10-15T14:53:39.406Z,14.60
2022-10-15T14:56:15.598Z,14.49
2022-10-15T14:58:47.322Z,14.48
2022-10-15T15:01:13.959Z,14.86
2022-10-15T15:03:42.582Z,14.42
2022-10-15T15:06:09.395Z,13.36
2022-10-15T15:08:36.015Z,14.58
2022-10-15T15:11:05.634Z,14.31
2022-10-15T15:13:37.972Z,14.50
2022-10-15T15:16:04.961Z,13.85
2022-10-15T15:18:31.578Z,13.85
2022-10-15T15:21:02.946Z,13.96
2022-10-15T15:23:29.753Z,13.88
2022-10-15T15:25:56.705Z,14.30
2022-10-15T15:28:25.535Z,13.08
2022-10-15T15:31:02.982Z,13.60
2022-10-15T15:33:29.640Z,14.38
2022-10-15T15:36:00.407Z,14.49
2022-10-15T15:38:31.527Z,14.52
2022-10-15T15:41:04.055Z,12.85
2022-10-15T15:43:30.972Z,14.19
2022-10-15T15:45:57.577Z,14.10
2022-10-15T15:48:24.325Z,12.58
2022-10-15T15:50:50.935Z,14.53
2022-10-15T15:53:17.608Z,14.00
2022-10-15T15:55:44.285Z,13.75
2022-10-15T15:58:10.857Z,13.87
2022-10-15T16:00:37.490Z,13.63
2022-10-15T16:03:04.091Z,12.69
2022-10-15T16:05:30.734Z,14.02
2022-10-15T16:07:57.332Z,13.40
2022-10-15T16:10:24.085Z,12.36
2022-10-15T16:12:50.746Z,12.93
2022-10-15T16:15:22.480Z,13.47
2022-10-15T16:17:49.062Z,13.54
2022-10-15T16:20:15.757Z,13.88
2022-10-15T16:22:42.943Z,13.28
2022-10-15T16:25:10.155Z,13.81
2022-10-15T16:27:36.785Z,13.75
2022-10-15T16:30:03.905Z,12.88
2022-10-15T16:32:30.516Z,13.70
2022-10-15T16:34:57.096Z,13.39
2022-10-15T16:37:23.898Z,13.71
2022-10-15T16:39:50.666Z,12.96
2022-10-15T16:44:48.924Z,13.69
2022-10-15T16:47:15.486Z,13.41
2022-10-15T16:49:43.044Z,12.45
2022-10-15T16:52:09.784Z,13.69
2022-10-15T16:54:36.628Z,13.27
2022-10-15T16:57:03.506Z,13.71
2022-10-15T16:59:30.135Z,13.70
2022-10-15T17:01:56.783Z,13.57
2022-10-15T17:04:23.472Z,13.52
2022-10-15T17:06:50.234Z,13.34
2022-10-15T17:09:16.827Z,13.70
2022-10-15T17:11:43.598Z,13.71
2022-10-15T17:14:11.511Z,13.47
2022-10-15T17:16:45.103Z,13.40
2022-10-15T17:19:15.213Z,13.68
2022-10-15T17:21:42.717Z,13.06
2022-10-15T17:24:12.660Z,11.70
2022-10-15T17:26:40.569Z,13.48
2022-10-15T17:29:16.386Z,13.27
2022-10-15T17:31:43.164Z,13.73
2022-10-15T17:34:10.600Z,12.90
2022-10-15T17:36:43.066Z,13.69
2022-10-15T17:39:10.020Z,13.57
2022-10-15T17:41:36.586Z,13.71
2022-10-15T17:44:03.940Z,12.36
2022-10-15T17:46:30.971Z,13.63
2022-10-15T17:48:57.985Z,13.72
2022-10-15T17:51:26.776Z,13.70
2022-10-15T17:53:53.655Z,13.54
2022-10-15T17:56:24.697Z,12.49
2022-10-15T17:58:51.486Z,12.63
2022-10-15T18:01:28.075Z,13.66
2022-10-15T18:04:06.454Z,13.15
2022-10-15T18:06:33.033Z,13.40
2022-10-15T18:09:00.486Z,13.27
2022-10-15T18:11:29.236Z,13.74
2022-10-15T18:13:55.895Z,13.92
2022-10-15T18:16:22.621Z,13.60
2022-10-15T18:18:49.563Z,13.77
2022-10-15T18:21:17.238Z,12.53
2022-10-15T18:23:43.913Z,13.66
2022-10-15T18:26:14.688Z,12.76
2022-10-15T18:28:44.515Z,13.67
2022-10-15T18:31:15.387Z,13.15
2022-10-15T18:33:43.090Z,13.35
2022-10-15T18:36:11.511Z,13.74
2022-10-15T18:38:38.132Z,13.40
2022-10-15T18:41:15.503Z,13.32
2022-10-15T18:43:42.172Z,13.71
2022-10-15T18:46:08.932Z,12.66
2022-10-15T18:48:37.395Z,13.61
2022-10-15T18:51:09.180Z,13.26
2022-10-15T18:53:37.235Z,11.76
2022-10-15T18:56:04.523Z,13.07
2022-10-15T18:58:31.198Z,13.38
2022-10-15T19:00:58.309Z,13.48
2022-10-15T19:03:25.255Z,12.98
2022-10-15T19:05:51.951Z,13.51
2022-10-15T19:08:20.798Z,13.28
2022-10-15T19:10:48.230Z,13.42
2022-10-15T19:13:14.972Z,13.02
2022-10-15T19:15:41.592Z,13.48
2022-10-15T19:18:11.502Z,13.40
2022-10-15T19:20:40.421Z,13.05
2022-10-15T19:23:07.135Z,13.08
2022-10-15T19:25:33.900Z,13.26
2022-10-15T19:28:00.702Z,12.19
2022-10-15T19:30:28.300Z,12.40
2022-10-15T19:32:54.999Z,13.01
2022-10-15T19:35:21.565Z,11.64
2022-10-15T19:37:48.383Z,11.88
2022-10-15T19:40:15.062Z,13.14
2022-10-15T19:42:41.801Z,13.50
2022-10-15T19:45:09.044Z,12.97
2022-10-15T19:47:35.844Z,12.73
2022-10-15T19:50:02.455Z,12.93
2022-10-15T19:52:29.225Z,12.50
2022-10-15T19:54:55.962Z,13.05
2022-10-15T19:57:23.615Z,12.91
2022-10-15T19:59:50.513Z,13.41
2022-10-15T20:02:17.190Z,12.73
2022-10-15T20:04:43.801Z,13.18
2022-10-15T20:07:10.591Z,13.28
2022-10-15T20:09:37.308Z,12.89
2022-10-15T20:12:03.918Z,13.06
2022-10-15T20:14:30.490Z,13.05
2022-10-15T20:16:57.238Z,12.89
2022-10-15T20:19:23.997Z,13.27
2022-10-15T20:21:50.880Z,13.04
2022-10-15T20:24:17.559Z,12.78
2022-10-15T20:26:44.382Z,12.84
2022-10-15T20:29:10.985Z,13.07
2022-10-15T20:31:37.579Z,11.79
2022-10-15T20:34:04.206Z,11.63
2022-10-15T20:36:30.867Z,13.11
2022-10-15T20:38:59.291Z,12.82
2022-10-15T20:41:25.978Z,12.69
2022-10-15T20:43:54.860Z,12.88
2022-10-15T20:46:33.581Z,12.36
2022-10-15T20:49:07.618Z,12.84
2022-10-15T20:51:36.220Z,13.18
2022-10-15T20:54:02.918Z,10.98
2022-10-15T20:56:29.525Z,13.07
2022-10-15T20:58:56.174Z,11.35
2022-10-15T21:01:23.056Z,12.80
2022-10-15T21:03:49.681Z,13.15
2022-10-15T21:06:16.329Z,13.07
2022-10-15T21:08:42.951Z,12.91
2022-10-15T21:11:09.855Z,12.69
2022-10-15T21:13:36.502Z,13.16
2022-10-15T21:16:05.614Z,12.96
2022-10-15T21:18:32.866Z,12.52
2022-10-15T21:21:07.530Z,12.40
2022-10-15T21:23:34.729Z,12.36
2022-10-15T21:26:14.717Z,13.20
2022-10-15T21:28:41.633Z,12.80
2022-10-15T21:31:09.610Z,12.65
2022-10-15T21:33:36.464Z,12.36
2022-10-15T21:36:10.161Z,12.89
2022-10-15T21:38:36.806Z,12.94
2022-10-15T21:41:03.532Z,12.64
2022-10-15T21:43:30.251Z,13.40
2022-10-15T21:46:05.259Z,13.44
2022-10-15T21:48:31.658Z,13.46
2022-10-15T21:50:58.260Z,13.04
2022-10-15T21:53:24.879Z,13.04
2022-10-15T21:55:55.449Z,12.83
2022-10-15T21:58:22.074Z,12.97
2022-10-15T22:00:49.171Z,13.04
2022-10-15T22:03:15.795Z,13.10
2022-10-15T22:05:42.987Z,12.95
2022-10-15T22:08:09.670Z,12.70
2022-10-15T22:10:36.998Z,13.62
2022-10-15T22:13:03.884Z,13.33
2022-10-15T22:15:32.239Z,12.81
2022-10-15T22:17:58.859Z,12.39
2022-10-15T22:20:25.908Z,12.68
2022-10-15T22:22:55.660Z,13.10
2022-10-15T22:25:22.294Z,12.73
2022-10-15T22:27:48.980Z,12.98
2022-10-15T22:30:15.732Z,13.47
2022-10-15T22:32:42.374Z,12.94
2022-10-15T22:35:09.055Z,12.61
2022-10-15T22:37:35.710Z,13.08
2022-10-15T22:40:02.311Z,12.66
2022-10-15T22:42:29.068Z,13.58
2022-10-15T22:44:55.730Z,13.41
2022-10-15T22:47:22.294Z,13.28
2022-10-15T22:49:48.976Z,13.42
2022-10-15T22:52:15.671Z,11.78
2022-10-15T22:54:42.236Z,12.84
2022-10-15T22:57:08.959Z,13.17
2022-10-15T22:59:35.743Z,12.92
2022-10-15T23:02:04.246Z,13.20
2022-10-15T23:04:30.803Z,13.63
2022-10-15T23:06:57.411Z,13.17
2022-10-15T23:09:24.017Z,12.98
2022-10-15T23:12:12.550Z,13.57
2022-10-15T23:14:39.149Z,13.21
2022-10-15T23:17:05.749Z,12.39
2022-10-15T23:19:32.420Z,13.37
2022-10-15T23:22:01.273Z,12.57
2022-10-15T23:24:29.079Z,13.02
2022-10-15T23:26:55.823Z,13.34
2022-10-15T23:29:23.927Z,13.08
2022-10-15T23:31:50.719Z,13.18
2022-10-15T23:34:19.256Z,12.93
2022-10-15T23:36:45.972Z,12.15
2022-10-15T23:39:14.368Z,11.80
2022-10-15T23:41:41.036Z,13.41
2022-10-15T23:44:07.921Z,12.79
2022-10-15T23:46:34.483Z,11.69
2022-10-15T23:49:01.125Z,13.26
2022-10-15T23:51:30.146Z,11.90
2022-10-15T23:54:00.267Z,12.24
2022-10-15T23:56:26.930Z,12.48
2022-10-15T23:58:58.175Z,13.44
